createdAt,value
2023-01-17T00:02:05.925Z,87.64
2023-01-17T00:07:22.697Z,88.15
2023-01-17T00:09:57.195Z,87.54
2023-01-17T00:12:30.747Z,87.96
2023-01-17T00:14:59.109Z,87.37
2023-01-17T00:17:34.134Z,87.06
2023-01-17T00:20:20.310Z,87.56
2023-01-17T00:23:06.909Z,88.04
2023-01-17T00:25:39.966Z,88.50
2023-01-17T00:28:07.093Z,87.93
2023-01-17T00:30:34.355Z,87.81
2023-01-17T00:33:01.267Z,87.17
2023-01-17T00:35:30.384Z,86.84
2023-01-17T00:38:08.405Z,86.81
2023-01-17T00:40:36.714Z,86.02
2023-01-17T00:43:23.002Z,86.37
2023-01-17T00:46:09.279Z,86.59
2023-01-17T00:51:22.698Z,86.17
2023-01-17T00:54:07.888Z,85.27
2023-01-17T00:56:39.534Z,86.35
2023-01-17T00:59:32.473Z,85.46
2023-01-17T01:02:17.931Z,85.82
2023-01-17T01:05:03.453Z,85.23
2023-01-17T01:07:41.005Z,84.28
2023-01-17T01:10:26.833Z,85.38
2023-01-17T01:13:12.009Z,85.35
2023-01-17T01:15:39.579Z,84.68
2023-01-17T01:18:27.301Z,85.12
2023-01-17T01:21:12.984Z,84.07
2023-01-17T01:23:57.928Z,84.97
2023-01-17T01:26:39.735Z,85.12
2023-01-17T01:29:27.424Z,85.13
2023-01-17T01:32:12.874Z,84.96
2023-01-17T01:34:39.714Z,84.98
2023-01-17T01:37:06.441Z,85.49
2023-01-17T01:39:33.185Z,84.83
2023-01-17T01:41:59.824Z,84.49
2023-01-17T01:44:40.614Z,83.08
2023-01-17T01:47:13.782Z,83.32
2023-01-17T01:49:43.378Z,83.60
2023-01-17T01:52:11.890Z,83.23
2023-01-17T01:54:39.638Z,83.06
2023-01-17T01:57:11.079Z,82.93
2023-01-17T01:59:41.620Z,82.03
2023-01-17T02:02:08.989Z,82.51
2023-01-17T02:04:36.788Z,81.99
2023-01-17T02:07:11.864Z,81.46
2023-01-17T02:12:05.024Z,81.61
2023-01-17T02:14:32.014Z,82.08
2023-01-17T02:17:36.588Z,80.44
2023-01-17T02:23:41.237Z,79.94
2023-01-17T02:26:39.576Z,80.02
2023-01-17T02:29:12.117Z,78.31
2023-01-17T02:31:39.583Z,77.58
2023-01-17T02:34:15.329Z,77.93
2023-01-17T02:36:50.036Z,76.61
2023-01-17T02:39:28.570Z,76.16
2023-01-17T02:42:02.897Z,75.18
2023-01-17T02:44:29.612Z,75.42
2023-01-17T02:46:58.292Z,74.42
2023-01-17T02:49:32.219Z,75.08
2023-01-17T02:52:08.021Z,74.14
2023-01-17T02:54:39.726Z,73.62
2023-01-17T02:57:33.703Z,74.91
2023-01-17T03:00:04.504Z,73.65
2023-01-17T03:02:40.736Z,73.93
2023-01-17T03:05:13.880Z,73.89
2023-01-17T03:07:44.624Z,73.09
2023-01-17T03:10:13.419Z,73.50
2023-01-17T03:12:44.910Z,74.05
2023-01-17T03:15:14.390Z,73.77
2023-01-17T03:17:53.019Z,73.34
2023-01-17T03:20:22.258Z,73.39
2023-01-17T03:22:49.392Z,73.71
2023-01-17T03:25:17.789Z,73.52
2023-01-17T03:27:44.656Z,73.13
2023-01-17T03:30:12.105Z,73.50
2023-01-17T03:32:39.598Z,72.91
2023-01-17T03:35:07.251Z,71.34
2023-01-17T03:37:34.106Z,72.14
2023-01-17T03:40:09.914Z,71.88
2023-01-17T03:42:37.151Z,73.00
2023-01-17T03:45:04.380Z,72.98
2023-01-17T03:47:31.350Z,72.24
2023-01-17T03:49:58.101Z,72.41
2023-01-17T03:52:28.589Z,72.17
2023-01-17T03:54:55.420Z,73.18
2023-01-17T03:57:22.200Z,72.80
2023-01-17T03:59:49.058Z,73.69
2023-01-17T04:02:15.949Z,73.86
2023-01-17T04:04:43.034Z,74.38
2023-01-17T04:07:09.709Z,74.67
2023-01-17T04:09:36.533Z,74.28
2023-01-17T04:12:03.807Z,75.00
2023-01-17T04:14:30.554Z,74.98
2023-01-17T04:16:57.608Z,74.95
2023-01-17T04:19:24.354Z,76.13
2023-01-17T04:21:51.723Z,75.46
2023-01-17T04:24:27.571Z,76.50
2023-01-17T04:26:54.369Z,77.14
2023-01-17T04:29:22.362Z,77.53
2023-01-17T04:31:49.518Z,77.58
2023-01-17T04:34:16.232Z,77.68
2023-01-17T04:36:43.083Z,77.81
2023-01-17T04:39:10.043Z,78.25
2023-01-17T04:41:36.755Z,78.39
2023-01-17T04:44:04.418Z,78.43
2023-01-17T04:46:31.404Z,79.55
2023-01-17T04:49:01.207Z,80.26
2023-01-17T04:51:28.054Z,80.40
2023-01-17T04:53:54.764Z,80.45
2023-01-17T04:56:21.570Z,80.37
2023-01-17T04:58:49.650Z,81.77
2023-01-17T05:01:16.832Z,81.46
2023-01-17T05:03:43.577Z,81.73
2023-01-17T05:06:10.421Z,82.24
2023-01-17T05:08:37.317Z,82.02
2023-01-17T05:11:04.004Z,82.29
2023-01-17T05:13:30.734Z,82.75
2023-01-17T05:15:58.639Z,83.29
2023-01-17T05:18:26.065Z,84.26
2023-01-17T05:20:53.083Z,85.77
2023-01-17T05:23:19.827Z,86.58
2023-01-17T05:25:55.454Z,86.88
2023-01-17T05:28:22.248Z,88.43
2023-01-17T05:30:49.176Z,87.91
2023-01-17T05:33:16.149Z,88.27
2023-01-17T05:35:42.940Z,89.55
2023-01-17T05:38:09.666Z,89.75
2023-01-17T05:40:36.514Z,91.73
2023-01-17T05:43:04.069Z,92.75
2023-01-17T05:45:32.438Z,91.16
2023-01-17T05:47:59.450Z,91.04
2023-01-17T05:50:35.532Z,90.34
2023-01-17T05:53:05.371Z,92.24
2023-01-17T05:55:33.138Z,92.75
2023-01-17T05:58:00.695Z,93.60
2023-01-17T06:00:27.747Z,91.52
2023-01-17T06:02:56.072Z,91.10
2023-01-17T06:05:24.150Z,90.82
2023-01-17T06:07:51.492Z,91.00
2023-01-17T06:10:23.944Z,91.01
2023-01-17T06:12:51.568Z,91.72
2023-01-17T06:15:18.865Z,90.06
2023-01-17T06:17:45.686Z,91.67
2023-01-17T06:20:15.531Z,91.32
2023-01-17T06:22:42.400Z,91.01
2023-01-17T06:25:13.997Z,92.48
2023-01-17T06:27:40.807Z,92.97
2023-01-17T06:30:08.245Z,93.07
2023-01-17T06:35:04.410Z,96.19
2023-01-17T06:37:31.169Z,96.73
2023-01-17T06:39:57.906Z,96.35
2023-01-17T06:42:24.763Z,97.63
2023-01-17T06:44:51.411Z,98.20
2023-01-17T06:47:18.079Z,96.80
2023-01-17T06:49:48.160Z,96.96
2023-01-17T06:52:14.813Z,95.95
2023-01-17T06:54:41.530Z,96.42
2023-01-17T06:57:08.314Z,95.53
2023-01-17T06:59:35.088Z,93.71
2023-01-17T07:02:01.778Z,94.23
2023-01-17T07:04:28.441Z,95.28
2023-01-17T07:06:55.076Z,94.07
2023-01-17T07:09:21.754Z,94.74
2023-01-17T07:11:48.501Z,94.49
2023-01-17T07:14:15.541Z,93.87
2023-01-17T07:16:46.133Z,92.98
2023-01-17T07:19:13.306Z,93.95
2023-01-17T07:21:40.558Z,94.08
2023-01-17T07:24:08.077Z,92.75
2023-01-17T07:29:05.339Z,91.87
2023-01-17T07:31:35.837Z,89.97
2023-01-17T07:34:03.463Z,88.85
2023-01-17T07:36:30.079Z,89.51
2023-01-17T07:38:56.755Z,89.03
2023-01-17T07:41:23.561Z,89.19
2023-01-17T07:43:50.346Z,88.88
2023-01-17T07:46:17.331Z,89.07
2023-01-17T07:48:44.378Z,88.74
2023-01-17T07:51:11.098Z,89.41
2023-01-17T07:56:07.836Z,89.08
2023-01-17T07:58:35.913Z,89.36
2023-01-17T08:01:08.109Z,89.20
2023-01-17T08:03:40.190Z,88.93
2023-01-17T08:06:29.357Z,89.40
2023-01-17T08:08:59.108Z,89.51
2023-01-17T08:11:26.106Z,89.03
2023-01-17T08:13:57.562Z,88.82
2023-01-17T08:16:25.079Z,89.11
2023-01-17T08:18:52.703Z,87.79
2023-01-17T08:21:23.083Z,88.32
2023-01-17T08:23:53.073Z,89.26
2023-01-17T08:26:22.378Z,88.72
2023-01-17T08:29:02.439Z,87.95
2023-01-17T08:31:32.023Z,87.73
2023-01-17T08:33:58.804Z,86.93
2023-01-17T08:36:26.104Z,86.48
2023-01-17T08:38:53.049Z,86.03
2023-01-17T08:41:21.108Z,87.07
2023-01-17T08:43:48.964Z,85.72
2023-01-17T08:46:16.455Z,85.47
2023-01-17T08:48:43.436Z,85.83
2023-01-17T08:51:10.940Z,84.58
2023-01-17T08:56:05.722Z,84.26
2023-01-17T08:58:33.005Z,84.53
2023-01-17T09:01:04.662Z,83.57
2023-01-17T09:03:32.663Z,83.22
2023-01-17T09:06:05.113Z,83.25
2023-01-17T09:08:32.208Z,83.02
2023-01-17T09:10:59.082Z,82.98
2023-01-17T09:13:25.778Z,83.35
2023-01-17T09:15:56.626Z,82.79
2023-01-17T09:18:23.675Z,82.03
2023-01-17T09:20:54.994Z,81.65
2023-01-17T09:23:25.771Z,81.95
2023-01-17T09:25:56.683Z,81.71
2023-01-17T09:28:24.231Z,80.72
2023-01-17T09:30:51.225Z,80.84
2023-01-17T09:33:18.096Z,80.72
2023-01-17T09:35:46.100Z,80.54
2023-01-17T09:38:13.154Z,80.22
2023-01-17T09:40:45.039Z,81.81
2023-01-17T09:43:24.817Z,81.83
2023-01-17T09:45:52.056Z,82.82
2023-01-17T09:48:30.200Z,82.95
2023-01-17T09:51:20.013Z,82.92
2023-01-17T09:53:47.308Z,81.82
2023-01-17T09:56:29.726Z,79.44
2023-01-17T09:59:35.221Z,76.20
2023-01-17T10:02:05.551Z,74.20
2023-01-17T10:04:39.914Z,73.49
2023-01-17T10:07:38.831Z,76.52
2023-01-17T10:10:37.415Z,74.89
2023-01-17T10:13:18.882Z,76.45
2023-01-17T10:15:48.312Z,74.79
2023-01-17T10:18:32.125Z,72.17
2023-01-17T10:21:12.189Z,71.37
2023-01-17T10:23:39.800Z,72.20
2023-01-17T10:26:25.551Z,72.08
2023-01-17T10:28:56.739Z,71.21
2023-01-17T10:31:31.192Z,71.39
2023-01-17T10:34:06.986Z,71.62
2023-01-17T10:39:30.773Z,71.19
2023-01-17T10:42:23.425Z,69.65
2023-01-17T10:45:02.605Z,69.08
2023-01-17T10:47:33.316Z,68.90
2023-01-17T10:50:03.703Z,64.98
2023-01-17T10:52:38.896Z,61.52
2023-01-17T10:55:16.600Z,60.39
2023-01-17T10:57:45.591Z,55.62
2023-01-17T11:00:40.288Z,54.59
2023-01-17T11:03:09.951Z,52.56
2023-01-17T11:05:36.798Z,52.62
2023-01-17T11:08:08.197Z,52.33
2023-01-17T11:10:40.177Z,52.86
2023-01-17T11:13:31.003Z,46.64
2023-01-17T11:16:02.287Z,47.43
2023-01-17T11:18:32.114Z,43.21
2023-01-17T11:21:21.052Z,47.82
2023-01-17T11:23:51.049Z,53.51
2023-01-17T11:26:29.856Z,55.14
2023-01-17T11:29:30.845Z,53.62
2023-01-17T11:31:57.902Z,49.29
2023-01-17T11:34:27.265Z,53.74
2023-01-17T11:37:19.915Z,52.59
2023-01-17T11:39:49.916Z,47.79
2023-01-17T11:45:24.426Z,47.39
2023-01-17T11:48:13.427Z,49.84
2023-01-17T11:50:54.978Z,52.81
2023-01-17T11:53:33.554Z,52.31
2023-01-17T11:56:18.549Z,50.51
2023-01-17T11:58:46.039Z,50.51
2023-01-17T12:01:39.952Z,53.54
2023-01-17T12:04:24.920Z,56.63
2023-01-17T12:07:10.890Z,58.10
2023-01-17T12:09:38.973Z,58.70
2023-01-17T12:15:39.905Z,55.54
2023-01-17T12:18:18.859Z,56.30
2023-01-17T12:20:58.476Z,55.50
2023-01-17T12:23:40.708Z,56.45
2023-01-17T12:26:07.331Z,57.67
2023-01-17T12:28:39.933Z,58.04
2023-01-17T12:31:27.407Z,57.79
2023-01-17T12:34:07.162Z,57.60
2023-01-17T12:36:48.616Z,57.96
2023-01-17T12:39:20.418Z,57.45
2023-01-17T12:42:03.805Z,57.92
2023-01-17T12:44:38.959Z,57.75
2023-01-17T12:47:06.131Z,57.87
2023-01-17T12:49:40.125Z,59.24
2023-01-17T12:52:46.180Z,59.22
2023-01-17T12:55:24.256Z,59.28
2023-01-17T12:57:57.332Z,58.93
2023-01-17T13:00:30.212Z,59.27
2023-01-17T13:03:07.995Z,57.19
2023-01-17T13:05:40.728Z,57.25
2023-01-17T13:08:30.187Z,57.90
2023-01-17T13:11:06.538Z,56.08
2023-01-17T13:13:35.874Z,55.52
2023-01-17T13:16:15.447Z,55.25
2023-01-17T13:18:46.912Z,55.19
2023-01-17T13:21:33.758Z,55.71
2023-01-17T13:24:03.928Z,54.84
2023-01-17T13:26:39.894Z,56.21
2023-01-17T13:29:25.215Z,55.58
2023-01-17T13:32:03.932Z,56.53
2023-01-17T13:34:44.068Z,57.24
2023-01-17T13:37:13.483Z,57.35
2023-01-17T13:39:59.021Z,56.68
2023-01-17T13:45:20.827Z,49.58
2023-01-17T13:47:48.012Z,48.98
2023-01-17T13:50:40.070Z,48.80
2023-01-17T13:53:40.059Z,47.25
2023-01-17T13:56:12.510Z,43.53
2023-01-17T13:58:39.961Z,41.01
2023-01-17T14:01:11.663Z,39.16
2023-01-17T14:03:40.106Z,39.05
2023-01-17T14:06:26.743Z,40.78
2023-01-17T14:08:53.400Z,40.41
2023-01-17T14:11:20.157Z,39.53
2023-01-17T14:13:46.860Z,41.39
2023-01-17T14:16:27.530Z,42.00
2023-01-17T14:18:55.674Z,40.46
2023-01-17T14:21:36.035Z,41.65
2023-01-17T14:24:16.543Z,42.10
2023-01-17T14:27:22.722Z,42.90
2023-01-17T14:29:55.040Z,46.65
2023-01-17T14:32:24.508Z,48.18
2023-01-17T14:34:53.232Z,47.77
2023-01-17T14:37:39.910Z,51.40
2023-01-17T14:40:17.657Z,52.55
2023-01-17T14:42:46.005Z,54.23
2023-01-17T14:45:22.225Z,55.01
2023-01-17T14:47:48.993Z,56.26
2023-01-17T14:50:26.511Z,56.07
2023-01-17T14:53:11.477Z,57.70
2023-01-17T14:55:39.972Z,58.80
2023-01-17T14:58:07.217Z,59.43
2023-01-17T15:00:40.773Z,59.73
2023-01-17T15:03:14.601Z,60.69
2023-01-17T15:05:44.591Z,61.21
2023-01-17T15:08:14.626Z,61.55
2023-01-17T15:11:08.496Z,62.51
2023-01-17T15:13:44.652Z,61.76
2023-01-17T15:16:19.564Z,62.41
2023-01-17T15:18:46.530Z,63.89
2023-01-17T15:21:17.313Z,63.61
2023-01-17T15:23:56.124Z,64.58
2023-01-17T15:26:29.389Z,64.60
2023-01-17T15:29:06.314Z,65.36
2023-01-17T15:31:40.069Z,65.44
2023-01-17T15:34:09.803Z,66.50
2023-01-17T15:36:37.346Z,67.10
2023-01-17T15:39:15.162Z,66.34
2023-01-17T15:41:42.657Z,66.56
2023-01-17T15:44:33.378Z,67.14
2023-01-17T15:47:05.157Z,67.23
2023-01-17T15:49:32.171Z,67.91
2023-01-17T15:52:01.885Z,67.84
2023-01-17T15:54:28.573Z,68.50
2023-01-17T15:57:20.224Z,68.69
2023-01-17T15:59:52.754Z,68.92
2023-01-17T16:05:31.170Z,68.17
2023-01-17T16:08:17.754Z,69.50
2023-01-17T16:10:48.069Z,68.64
2023-01-17T16:13:15.605Z,68.26
2023-01-17T16:15:45.878Z,68.33
2023-01-17T16:18:18.991Z,68.50
2023-01-17T16:20:56.244Z,70.01
2023-01-17T16:23:24.369Z,70.10
2023-01-17T16:25:51.498Z,70.21
2023-01-17T16:28:19.700Z,70.28
2023-01-17T16:30:49.092Z,70.98
2023-01-17T16:33:27.208Z,71.30
2023-01-17T16:35:54.710Z,72.55
2023-01-17T16:38:24.574Z,70.80
2023-01-17T16:40:54.655Z,71.76
2023-01-17T16:43:21.388Z,71.30
2023-01-17T16:45:54.301Z,73.02
2023-01-17T16:48:21.785Z,73.09
2023-01-17T16:50:50.934Z,72.63
2023-01-17T16:53:24.736Z,73.80
2023-01-17T16:55:58.072Z,74.50
2023-01-17T16:58:25.864Z,74.49
2023-01-17T17:00:52.689Z,74.94
2023-01-17T17:03:21.314Z,74.95
2023-01-17T17:06:02.346Z,75.23
2023-01-17T17:08:29.700Z,75.52
2023-01-17T17:11:13.695Z,74.71
2023-01-17T17:13:42.156Z,75.49
2023-01-17T17:16:20.218Z,75.79
2023-01-17T17:18:53.679Z,75.59
2023-01-17T17:21:20.641Z,76.37
2023-01-17T17:23:58.727Z,75.38
2023-01-17T17:26:29.389Z,76.17
2023-01-17T17:28:56.221Z,76.92
2023-01-17T17:31:24.573Z,77.09
2023-01-17T17:33:51.911Z,75.61
2023-01-17T17:36:19.300Z,76.48
2023-01-17T17:38:53.913Z,76.84
2023-01-17T17:41:36.276Z,76.98
2023-01-17T17:44:17.982Z,75.56
2023-01-17T17:46:49.384Z,76.18
2023-01-17T17:49:17.409Z,75.93
2023-01-17T17:51:48.113Z,75.55
2023-01-17T17:54:17.347Z,76.10
2023-01-17T17:56:47.595Z,75.40
2023-01-17T17:59:18.327Z,77.13
2023-01-17T18:01:46.088Z,76.14
2023-01-17T18:04:16.203Z,76.63
2023-01-17T18:06:43.319Z,75.60
2023-01-17T18:09:17.162Z,76.26
2023-01-17T18:11:50.887Z,78.47
2023-01-17T18:14:30.408Z,79.28
2023-01-17T18:17:00.337Z,79.30
2023-01-17T18:19:27.206Z,76.43
2023-01-17T18:21:54.611Z,79.83
2023-01-17T18:24:27.933Z,80.35
2023-01-17T18:27:00.004Z,80.30
2023-01-17T18:29:27.434Z,79.65
2023-01-17T18:31:54.708Z,79.04
2023-01-17T18:34:29.400Z,79.18
2023-01-17T18:36:57.619Z,77.88
2023-01-17T18:39:30.130Z,78.48
2023-01-17T18:41:57.601Z,78.28
2023-01-17T18:44:28.896Z,79.42
2023-01-17T18:46:58.233Z,80.22
2023-01-17T18:49:25.037Z,80.42
2023-01-17T18:51:51.960Z,80.20
2023-01-17T18:54:27.988Z,81.42
2023-01-17T18:56:55.989Z,81.27
2023-01-17T18:59:23.631Z,82.11
2023-01-17T19:01:53.838Z,82.70
2023-01-17T19:04:20.712Z,82.70
2023-01-17T19:06:51.391Z,83.46
2023-01-17T19:09:23.182Z,82.77
2023-01-17T19:11:50.443Z,81.94
2023-01-17T19:14:20.289Z,81.64
2023-01-17T19:16:51.335Z,81.89
2023-01-17T19:19:18.814Z,81.78
2023-01-17T19:21:45.523Z,83.36
2023-01-17T19:24:13.507Z,83.44
2023-01-17T19:26:41.004Z,83.54
2023-01-17T19:29:07.907Z,82.85
2023-01-17T19:31:42.982Z,82.78
2023-01-17T19:34:30.803Z,82.94
2023-01-17T19:36:58.910Z,82.84
2023-01-17T19:39:28.782Z,83.83
2023-01-17T19:42:13.740Z,84.04
2023-01-17T19:44:40.547Z,84.30
2023-01-17T19:47:14.603Z,82.40
2023-01-17T19:49:42.589Z,83.40
2023-01-17T19:52:09.296Z,84.17
2023-01-17T19:54:36.060Z,84.03
2023-01-17T19:57:05.089Z,83.25
2023-01-17T19:59:31.981Z,83.53
2023-01-17T20:02:01.242Z,84.13
2023-01-17T20:04:31.797Z,84.03
2023-01-17T20:06:58.523Z,84.17
2023-01-17T20:12:04.748Z,83.40
2023-01-17T20:14:34.464Z,83.59
2023-01-17T20:17:01.544Z,84.42
2023-01-17T20:19:32.083Z,83.06
2023-01-17T20:21:58.838Z,82.79
2023-01-17T20:24:25.661Z,82.84
2023-01-17T20:26:53.638Z,82.26
2023-01-17T20:29:20.588Z,83.71
2023-01-17T20:31:52.692Z,84.45
2023-01-17T20:34:19.990Z,84.79
2023-01-17T20:36:49.084Z,84.02
2023-01-17T20:39:25.881Z,84.11
2023-01-17T20:41:53.011Z,83.61
2023-01-17T20:44:20.108Z,83.63
2023-01-17T20:46:48.635Z,83.16
2023-01-17T20:49:28.814Z,83.15
2023-01-17T20:51:55.872Z,83.25
2023-01-17T20:54:23.654Z,82.65
2023-01-17T20:56:50.778Z,82.95
2023-01-17T20:59:24.665Z,83.65
2023-01-17T21:01:52.439Z,84.30
2023-01-17T21:04:25.972Z,85.16
2023-01-17T21:07:00.576Z,84.72
2023-01-17T21:09:37.139Z,84.84
2023-01-17T21:12:04.312Z,85.16
2023-01-17T21:17:08.138Z,85.43
2023-01-17T21:19:35.495Z,85.55
2023-01-17T21:22:05.660Z,85.54
2023-01-17T21:24:32.333Z,86.01
2023-01-17T21:26:59.095Z,85.77
2023-01-17T21:29:29.633Z,86.52
2023-01-17T21:34:32.937Z,85.25
2023-01-17T21:37:03.485Z,85.61
2023-01-17T21:39:31.329Z,85.11
2023-01-17T21:41:58.415Z,85.70
2023-01-17T21:44:26.225Z,86.01
2023-01-17T21:46:56.129Z,86.17
2023-01-17T21:49:40.099Z,86.53
2023-01-17T21:52:06.776Z,86.46
2023-01-17T21:57:22.973Z,86.02
2023-01-17T21:59:54.578Z,86.16
2023-01-17T22:02:21.590Z,85.47
2023-01-17T22:04:48.402Z,85.39
2023-01-17T22:07:15.259Z,85.59
2023-01-17T22:09:42.172Z,84.39
2023-01-17T22:12:08.888Z,84.80
2023-01-17T22:14:35.811Z,84.55
2023-01-17T22:17:02.509Z,84.84
2023-01-17T22:19:29.216Z,84.50
2023-01-17T22:21:56.821Z,84.35
2023-01-17T22:24:27.173Z,84.88
2023-01-17T22:26:53.985Z,84.54
2023-01-17T22:29:21.844Z,84.75
2023-01-17T22:31:49.183Z,84.26
2023-01-17T22:34:27.361Z,83.80
2023-01-17T22:39:35.693Z,83.70
2023-01-17T22:42:02.422Z,83.14
2023-01-17T22:44:32.415Z,82.83
2023-01-17T22:47:00.244Z,82.97
2023-01-17T22:49:30.849Z,83.73
2023-01-17T22:51:57.533Z,82.83
2023-01-17T22:54:24.345Z,82.55
2023-01-17T22:56:51.017Z,82.28
2023-01-17T22:59:17.897Z,82.60
2023-01-17T23:01:44.732Z,82.32
2023-01-17T23:04:19.019Z,83.13
2023-01-17T23:06:45.699Z,81.72
2023-01-17T23:09:17.434Z,82.95
2023-01-17T23:11:52.998Z,82.42
2023-01-17T23:14:40.173Z,83.19
2023-01-17T23:17:27.476Z,83.27
2023-01-17T23:19:57.349Z,82.59
2023-01-17T23:22:31.092Z,82.72
2023-01-17T23:25:12.355Z,82.59
2023-01-17T23:27:58.916Z,82.43
2023-01-17T23:30:26.964Z,82.69
2023-01-17T23:33:10.671Z,83.33
2023-01-17T23:35:42.088Z,82.68
2023-01-17T23:38:29.802Z,81.72
2023-01-17T23:41:26.531Z,82.32
2023-01-17T23:43:55.359Z,82.24
2023-01-17T23:46:22.680Z,81.15
2023-01-17T23:48:49.403Z,81.47
2023-01-17T23:51:16.189Z,81.70
2023-01-17T23:53:43.025Z,81.77
2023-01-17T23:56:21.900Z,81.36
2023-01-17T23:58:48.869Z,80.60
